Latest Weather Observations for Frankston

IDV60901

Issued at 9:31 pm EST Tuesday 26 May 2015 (issued every 10 minutes, with the page automatically refreshed every 10 minutes)

About weather observations | Map of Melbourne area stations | Latest observations for Melbourne area | Other Formats
Station Details ID: 086371 Name: FRANKSTON AWS Lat: -38.15 Lon: 145.12 Height: 6.0 m
Data from the previous 72 hours. | See also: Recent months at Frankston
Date/Time
EST
Tmp

°C
App
Tmp
°C
Dew
Point
°C
Rel
Hum
%
Delta-T

°C
Wind Press
QNH
hPa
Press
MSL
hPa
Rain
since
9 am
mm
Dir
 
Spd
km/h
Gust
km/h
Spd
kts
Gust
kts
26/09:30pm 12.7 11.3 7.4 70 2.6 E 4 6 2 3 - - -
26/09:00pm 12.4 10.6 7.1 70 2.6 E 6 7 3 4 - - -
26/08:30pm 12.2 10.3 6.9 70 2.5 ESE 6 7 3 4 - - -
26/08:00pm 12.9 11.2 7.4 69 2.7 E 6 7 3 4 - - -
26/07:30pm 13.3 12.0 7.5 68 2.8 E 4 6 2 3 - - -
26/07:00pm 13.3 12.0 7.7 69 2.7 E 4 4 2 2 - - -
26/06:30pm 13.5 12.2 7.7 68 2.9 SE 4 6 2 3 - - -
26/06:00pm 14.2 13.0 7.9 66 3.1 E 4 7 2 4 - - -
26/05:30pm 14.4 12.8 8.1 66 3.1 E 6 11 3 6 - - -
26/05:00pm 14.8 13.2 8.1 64 3.4 NE 6 9 3 5 - - -
26/04:30pm 14.4 13.8 7.2 62 3.5 CALM 0 0 0 0 - - -
26/04:00pm 14.2 13.5 7.0 62 3.5 CALM 0 0 0 0 - - -
26/03:30pm 14.8 14.2 7.4 61 3.6 CALM 0 0 0 0 - - -
26/03:00pm 14.0 13.7 8.6 70 2.7 CALM 0 2 0 1 - - -
26/02:30pm 12.9 12.1 8.0 72 2.4 WSW 2 4 1 2 - - -
26/02:00pm 12.5 10.8 7.6 72 2.4 WSW 6 6 3 3 - - -
26/01:30pm 12.7 11.3 7.4 70 2.6 WSW 4 6 2 3 - - -
26/01:00pm 12.1 10.1 6.4 68 2.7 WSW 6 6 3 3 - - -
26/12:30pm 11.8 10.8 5.4 65 3.0 CALM 0 0 0 0 - - -
26/12:00pm 11.4 10.3 5.3 66 2.8 CALM 0 0 0 0 - - -
26/11:30am 10.9 9.7 4.6 65 2.8 CALM 0 0 0 0 - - -
26/11:00am 10.5 9.2 4.0 64 2.9 CALM 0 0 0 0 - - -
26/10:30am 10.6 9.3 4.1 64 2.9 CALM 0 0 0 0 - - -
26/10:00am 10.5 9.3 4.4 66 2.7 CALM 0 0 0 0 - - -
26/09:30am 10.1 8.8 4.3 67 2.6 CALM 0 2 0 1 - - -
26/09:00am 9.7 8.5 4.7 71 2.2 CALM 0 0 0 0 - - -
26/08:30am 8.2 6.5 3.9 74 1.9 ESE 2 4 1 2 - - -
26/08:00am 6.5 4.5 2.2 74 1.8 SE 2 6 1 3 - - -
26/07:30am 7.1 5.5 2.4 72 1.9 CALM 0 0 0 0 - - -
26/07:00am 8.5 7.1 3.6 71 2.1 CALM 0 0 0 0 - - -
26/06:30am 8.9 7.5 3.7 70 2.3 CALM 0 0 0 0 - - -
26/06:00am 8.7 7.3 3.5 70 2.2 CALM 0 0 0 0 - - -
26/05:30am 9.0 7.3 3.8 70 2.3 ESE 2 4 1 2 - - -
26/05:00am 8.8 7.0 3.6 70 2.2 ESE 2 4 1 2 - - -
26/04:30am 8.8 7.4 3.4 69 2.3 CALM 0 0 0 0 - - -
26/04:00am 9.4 8.0 3.6 67 2.5 CALM 0 0 0 0 - - -
26/03:30am 9.7 8.0 3.9 67 2.5 E 2 4 1 2 - - -
26/03:00am 9.7 8.0 3.9 67 2.5 ESE 2 4 1 2 - - -
26/02:30am 9.7 8.4 3.9 67 2.5 CALM 0 0 0 0 - - -
26/02:00am 9.8 7.8 4.2 68 2.5 ESE 4 4 2 2 - - -
26/01:30am - - - - - E 4 4 2 2 - - -
26/01:00am - - - - - ESE 4 6 2 3 - - -
26/12:30am - - - - - ESE 4 6 2 3 - - -
26/12:00am 10.1 8.2 5.1 71 2.3 ESE 4 6 2 3 - - -
 
Date/Time
EST
Tmp

°C
App
Tmp
°C
Dew
Point
°C
Rel
Hum
%
Delta-T

°C
Wind Press
QNH
hPa
Press
MSL
hPa
Rain
since
9 am
mm
Dir
 
Spd
km/h
Gust
km/h
Spd
kts
Gust
kts
25/11:30pm - - - - - E 6 7 3 4 - - -
25/11:00pm 10.3 8.0 4.9 69 2.4 E 6 7 3 4 - - -
25/10:30pm 10.8 8.7 5.6 70 2.4 E 6 7 3 4 - - -
25/10:00pm 10.6 8.8 5.6 71 2.3 E 4 6 2 3 - - -
25/09:30pm 10.8 9.0 5.6 70 2.4 ESE 4 7 2 4 - - -
25/09:00pm 11.0 9.3 5.7 70 2.4 ESE 4 6 2 3 - - -
25/08:30pm 11.4 9.7 5.7 68 2.6 ESE 4 6 2 3 - - -
25/08:00pm 11.8 10.1 5.9 67 2.8 ESE 4 6 2 3 - - -
25/07:30pm 11.9 10.2 6.0 67 2.8 ESE 4 6 2 3 - - -
25/07:00pm - - - - - E 4 6 2 3 - - -
25/06:30pm - - - - - ESE 4 6 2 3 - - -
25/06:00pm - - - - - ESE 4 6 2 3 - - -
25/05:30pm - - - - - CALM 0 0 0 0 - - -
25/05:00pm - - - - - CALM 0 0 0 0 - - -
25/04:30pm - - - - - CALM 0 0 0 0 - - -
25/04:00pm - - - - - WSW 4 6 2 3 - - -
25/03:30pm - - - - - WSW 2 4 1 2 - - -
25/03:00pm 14.2 13.5 7.0 62 3.5 CALM 0 0 0 0 - - -
25/02:30pm 13.8 12.4 7.1 64 3.3 WSW 4 4 2 2 - - -
25/02:00pm 13.7 13.0 7.0 64 3.3 CALM 0 0 0 0 - - -
25/01:30pm 13.4 12.6 6.7 64 3.2 CALM 0 0 0 0 - - -
25/01:00pm 13.7 12.6 7.0 64 3.3 WNW 2 4 1 2 - - -
25/12:30pm 13.4 11.9 6.7 64 3.2 NW 4 6 2 3 - - -
25/12:00pm 13.1 11.0 6.5 64 3.2 N 7 9 4 5 - - -
25/11:30am 13.0 12.0 7.2 68 2.8 N 2 6 1 3 - - -
25/11:00am 12.4 11.3 6.7 68 2.7 NNE 2 4 1 2 - - -
25/10:30am 11.6 9.6 6.1 69 2.6 NNE 6 9 3 5 - - -
25/10:00am 11.3 10.3 5.8 69 2.6 CALM 0 2 0 1 - - -
25/09:30am 10.9 9.9 5.7 70 2.4 CALM 0 0 0 0 - - -
25/09:00am 10.9 8.7 5.4 69 2.5 NNE 6 7 3 4 - - -
25/08:30am 10.8 9.0 5.3 69 2.5 E 4 6 2 3 - - -
25/08:00am 10.1 8.2 4.9 70 2.3 E 4 6 2 3 - - -
25/07:30am 9.4 7.2 5.2 75 1.9 ESE 6 7 3 4 - - -
25/07:00am 10.8 9.9 6.0 72 2.2 CALM 0 0 0 0 - - -
25/06:30am 10.8 9.5 5.8 71 2.3 N 2 7 1 4 - - -
25/06:00am 10.5 9.4 5.3 70 2.4 CALM 0 0 0 0 - - -
25/05:30am 9.8 8.3 5.2 73 2.1 SE 2 4 1 2 - - -
25/05:00am 9.3 7.3 4.5 72 2.1 SE 4 6 2 3 - - -
25/04:30am 9.9 8.5 5.3 73 2.1 ENE 2 4 1 2 - - -
25/04:00am 9.3 7.4 4.9 74 2.0 ESE 4 6 2 3 - - -
25/03:30am 9.6 7.7 5.0 73 2.1 E 4 6 2 3 - - -
25/03:00am 9.3 7.4 4.9 74 2.0 ESE 4 6 2 3 - - -
25/02:30am 9.0 7.1 4.8 75 1.9 ESE 4 7 2 4 - - -
25/02:00am 9.4 7.5 4.8 73 2.1 E 4 6 2 3 - - -
25/01:30am 9.6 7.7 5.0 73 2.1 ESE 4 6 2 3 - - -
25/01:00am 9.5 7.3 5.3 75 1.9 ESE 6 7 3 4 - - -
25/12:30am 9.4 7.6 5.2 75 1.9 E 4 6 2 3 - - -
25/12:00am 9.6 7.4 5.2 74 2.0 ENE 6 11 3 6 - - -
 
Date/Time
EST
Tmp

°C
App
Tmp
°C
Dew
Point
°C
Rel
Hum
%
Delta-T

°C
Wind Press
QNH
hPa
Press
MSL
hPa
Rain
since
9 am
mm
Dir
 
Spd
km/h
Gust
km/h
Spd
kts
Gust
kts
24/11:30pm 12.2 7.3 6.9 70 2.5 N 22 28 12 15 - - -
24/11:00pm 11.6 8.5 7.1 74 2.2 N 13 17 7 9 - - -
24/10:30pm 11.8 8.3 7.1 73 2.3 N 15 17 8 9 - - -
24/10:00pm 10.7 8.8 6.5 75 2.0 NE 6 11 3 6 - - -
24/09:30pm 10.4 8.7 5.8 73 2.1 E 4 7 2 4 - - -
24/09:00pm 11.0 9.0 6.4 73 2.2 E 6 9 3 5 - - -
24/08:30pm 9.9 7.8 5.7 75 1.9 ESE 6 11 3 6 - - -
24/08:00pm 9.7 8.0 5.9 77 1.7 SE 4 6 2 3 - - -
24/07:30pm 9.7 8.0 5.7 76 1.8 ESE 4 6 2 3 - - -
24/07:00pm 9.9 8.9 5.5 74 2.0 CALM 0 0 0 0 - - -
24/06:30pm 10.4 8.7 5.8 73 2.1 E 4 6 2 3 - - -
24/06:00pm 11.0 9.2 5.3 68 2.6 ESE 4 6 2 3 - - -
24/05:30pm 11.8 9.9 4.8 62 3.2 ESE 4 6 2 3 - - -
24/05:00pm 12.6 10.6 4.6 58 3.7 S 4 7 2 4 - - -
24/04:30pm 13.2 10.7 4.9 57 3.8 WSW 7 7 4 4 - - -
24/04:00pm 12.9 10.6 4.8 58 3.7 WSW 6 7 3 4 - - -
24/03:30pm 12.6 10.6 6.4 66 2.9 WNW 6 6 3 3 - - -
24/03:00pm 12.1 10.2 6.6 69 2.6 W 6 7 3 4 - - -
24/02:30pm 11.9 10.3 6.4 69 2.6 WSW 4 4 2 2 - - -
24/02:00pm 11.2 9.7 6.7 74 2.1 WSW 4 6 2 3 - - -
24/01:30pm 10.4 8.7 6.0 74 2.0 W 4 6 2 3 - - -
24/01:00pm 10.0 8.6 5.6 74 2.0 W 2 4 1 2 - - -
24/12:30pm 9.8 8.0 5.4 74 2.0 NW 4 4 2 2 - - -
24/12:00pm 9.7 7.3 5.3 74 2.0 N 7 11 4 6 - - -
24/11:30am 9.6 7.4 5.2 74 2.0 N 6 11 3 6 - - -
24/11:00am 8.9 6.5 5.1 77 1.7 N 7 11 4 6 - - -
24/10:30am 8.6 6.4 5.5 81 1.4 NNE 6 9 3 5 - - -
24/10:00am 8.2 6.1 5.7 84 1.1 ENE 6 7 3 4 - - -
24/09:30am 7.4 5.9 5.0 85 1.1 ENE 2 6 1 3 - - -
24/09:00am 6.8 5.2 4.5 85 1.0 E 2 6 1 3 - - -
24/08:30am 6.6 4.6 4.3 85 1.0 ESE 4 6 2 3 - - -
24/08:00am 6.7 4.7 4.4 85 1.0 E 4 6 2 3 - - -
24/07:30am 6.8 4.4 4.5 85 1.0 ENE 6 9 3 5 - - -
24/07:00am 6.9 4.6 4.6 85 1.0 NE 6 9 3 5 - - -
24/06:30am 7.3 5.0 5.0 85 1.0 E 6 11 3 6 - - -
24/06:00am 7.5 5.3 5.3 86 1.0 ENE 6 9 3 5 - - -
24/05:30am 7.7 6.0 5.7 87 0.9 ENE 4 6 2 3 - - -
24/05:00am 7.4 5.6 5.5 88 0.8 E 4 6 2 3 - - -
24/04:30am 7.1 4.9 5.3 88 0.8 ESE 6 9 3 5 - - -
24/04:00am 7.0 4.8 5.2 88 0.8 ESE 6 7 3 4 - - -
24/03:30am 7.0 4.8 5.2 88 0.8 ESE 6 9 3 5 - - -
24/03:00am 7.0 4.5 5.0 87 0.9 E 7 9 4 5 - - -
24/02:30am 7.2 5.4 5.2 87 0.9 E 4 7 2 4 - - -
24/02:00am 7.5 5.7 5.5 87 0.9 ESE 4 6 2 3 - - -
24/01:30am 7.4 5.2 5.2 86 1.0 ESE 6 7 3 4 - - -
24/01:00am 7.3 5.1 5.1 86 1.0 ESE 6 7 3 4 - - -
24/12:30am 6.7 5.1 4.5 86 1.0 ESE 2 4 1 2 - - -
24/12:00am 5.9 3.7 3.2 83 1.1 ESE 4 7 2 4 - - -
 
Date/Time
EST
Tmp

°C
App
Tmp
°C
Dew
Point
°C
Rel
Hum
%
Delta-T

°C
Wind Press
QNH
hPa
Press
MSL
hPa
Rain
since
9 am
mm
Dir
 
Spd
km/h
Gust
km/h
Spd
kts
Gust
kts
23/11:30pm 7.1 5.4 4.2 82 1.3 SE 2 4 1 2 - - -
23/11:00pm 7.5 5.5 4.5 81 1.3 SE 4 4 2 2 - - -
23/10:30pm 8.4 6.9 5.0 79 1.5 SE 2 4 1 2 - - -
23/10:00pm 8.0 6.0 4.2 77 1.7 SSE 4 4 2 2 - - -

Latest Capital City Observations: Canberra | Sydney | Melbourne | Brisbane | Adelaide | Perth | Hobart | Darwin

Other Formats:

Comma delimited format used in spreadsheet applications
http://www.bom.gov.au/fwo/IDV60901/IDV60901.94871.axf

JavaScript Object Notation format (JSON) in row-major order
http://www.bom.gov.au/fwo/IDV60901/IDV60901.94871.json